Terminal Aerodrome Forecast
Issued by NWS Louisville, KY

Home | Current Version | Previous Version | Text Only | Print | Product List | Glossary On
Versions: 1 2 3 4 5 6 7 8 9 10 11 12 13 14 15 16 17 18 19 20 21 22 23 24 25 26 27 28 29 30 31 32 33 34
169
FTUS43 KLMK 150135 AAA
TAFSDF
TAF AMD
KSDF 150135Z 1502/1606 28010KT P6SM OVC018
      TEMPO 1503/1507 6SM BR OVC011
     FM151200 VRB04KT P6SM BKN045
     FM160000 06006KT P6SM OVC035
     FM160100 06006KT 4SM -SNRA OVC026
     FM160300 07007KT 2SM -RA OVC012=

USA.gov is the U.S. government's official web portal to all federal, state and local government web resources and services.